Historyczne dane pomiarowe

Dodano dane terminowe – wersja testowa.

Dane z okresu 1951-2019

Wersja bazy: 1.34 [2019-03-16, lista zmian], aktualizacja planowana na 2019-04-15

Dane meteo z obszaru Polski uzyskane na podstawie danych udostępnionych przez Instytut Meteorologii i Gospodarki Wodnej – Państwowy Instytut Badawczy.

 

Wybierz Datę:    

       

TemperaturaWilgotnośćWiatrCiśnienieOpadyŚniegCzas trwania zjawisk
 Stacja t tx tn tng RH VA  wxwx mslp ppp RRR   cm mm wxwxwxwxwxwxwx
2001-08-13 7.5 13.0 2.5- 67.0 7.1 4.0 1.5 0.0 0.0- 802.9 0.0 0.0 0.0- 0.0 11.0--- 0.7---
2001-08-14 9.1 11.5 6.4- 96.8 11.2 6.9 2.3 0.0 0.0- 806.4 0.0 0.0 0.0- 0.0 0.3 0.4-- 18.3---
2001-08-15 13.9 16.9 8.8- 76.5 12.3 1.9 2.8 0.0 0.0- 810.9 0.0 0.0 0.0- 0.0 10.1---- 3.0--
2001-08-16 13.8 17.3 11.8- 73.9 11.7 2.4 2.9 0.0 0.0- 809.4 0.0 0.0 0.0- 0.0 12.0--- 3.3 1.0--
2001-08-17 12.5 16.5 10.2- 82.8 11.9 4.1 1.6 0.0 0.0- 808.2 0.0 0.0 0.0- 0.0 6.8---- 2.0--
2001-08-18 12.8 16.4 10.3- 84.8 12.6 3.3 2.0 0.0 0.0- 806.3 0.0 0.0 0.0- 0.0 7.5---- 3.0--
2001-08-19 13.4 17.0 9.6- 78.4 12.0 3.5 2.6 0.0 0.0- 804.3 3.8 3.8 0.0- 0.0 7.1 1.8--- 5.0- 5.7
2001-08-20 12.2 14.7 10.1- 73.4 10.5 4.5 3.6 0.0 0.0- 803.7 6.0 6.0 0.0- 0.0 5.3 2.0-- 0.3 2.0- 4.5
2001-08-21 10.2 14.4 8.3- 84.1 10.5 7.0 3.8 0.0 0.0- 804.8 79.8 68.1 11.7- 0.0 0.9 9.9-- 2.3-- 5.8
2001-08-22 10.3 12.2 8.0- 85.0 10.6 7.0 2.0 0.0 0.0- 806.7 4.5 4.5 0.0- 0.0 1.3 2.4-- 5.4-- 4.8
2001-08-23 9.5 11.2 8.0- 94.8 11.3 4.9 4.3 0.0 0.0- 807.4 6.4 6.4 0.0- 0.0 3.1 1.2-- 10.8-- 6.2
2001-08-24 10.2 12.6 8.4- 85.6 10.7 3.4 1.8 0.0 0.0- 807.5 12.6 12.6 0.0- 0.0 6.4 1.9-- 6.8-- 0.6
2001-08-25 11.6 15.9 8.2- 75.8 10.3 1.6 2.1 0.0 0.0- 807.8 0.0 0.0 0.0- 0.0 13.5-------
2001-08-26 10.9 14.4 9.0- 88.8 11.6 4.6 3.4 0.0 0.0- 807.3 0.0 0.0 0.0- 0.0 5.8--- 5.3 4.0--
2001-08-27 12.2 17.3 8.7- 67.3 9.4 3.5 3.8 0.0 0.0- 803.1 23.4 0.0 23.4- 0.0 12.2 3.0-- 3.5 2.0- 0.8
2001-08-28 2.2 12.4 -0.5- 93.8 6.8 7.4 5.0 0.0 0.0- 798.0 0.0 0.0 0.0- 0.0 4.6 2.7-- 10.3---
2001-08-29 0.9 2.6 -0.4- 94.6 6.1 7.8 9.6 13.7 0.0- 794.7 12.7 12.7 0.0- 0.0 0.0 1.8 4.3 0.3 18.3---
2001-08-30 3.7 8.5 0.1- 94.3 7.5 4.0 5.9 0.0 0.0- 799.2 0.0 0.0 0.0- 0.0 9.2--- 6.0---
2001-08-31 6.1 10.9 2.9- 79.5 7.6 4.4 2.3 0.0 0.0- 798.8 3.0 0.0 3.0- 0.0 10.6--- 4.3- 3.5-
2001-09-01 5.6 7.0 4.5- 99.3 9.0 7.9 5.4 0.0 0.0- 795.7 6.1 4.9 1.2- 0.0 0.0 8.3-- 21.3---
2001-09-02 2.9 4.8 1.4- 99.8 7.5 7.4 3.9 0.0 0.0- 796.3 16.0 16.0 0.0- 0.0 0.0 9.4-- 20.5---
2001-09-03 3.6 8.5 -1.0- 90.4 7.2 4.3 2.6 0.0 0.0- 798.9 0.0 0.0 0.0- 0.0 8.5--- 6.2---
2001-09-04 5.9 7.7 4.3- 87.6 8.1 5.9 8.4 5.8 0.0- 797.8 4.5 0.0 4.5- 0.0 6.9 2.5-- 11.3---
2001-09-05 5.0 6.8 3.9-100.0 8.8 7.8 4.9 0.0 0.0- 793.6 27.8 10.8 17.0- 0.0 0.0 12.0-- 24.0---
2001-09-06 4.7 5.3 3.9-100.0 8.5 8.0 8.9 8.8 0.0- 793.1100.5 47.0 53.5- 0.0 0.0 22.7-- 24.0---
2001-09-07 2.2 4.5 1.5-100.0 7.2 8.0 7.0 0.0 0.0- 793.3 3.5 1.5 2.0- 0.0 0.0 8.5-- 24.0---
2001-09-08 1.5 3.2 0.1- 98.4 6.7 7.8 7.6 4.0 0.0- 789.2 6.6 3.9 2.7- 0.0 0.0 5.3-- 15.7---
2001-09-09 -1.7 1.8 -3.2- 95.8 5.2 7.4 6.5 3.3 0.0- 786.9 0.9 0.7 0.2 2 0.0 1.9- 4.3- 15.1---
2001-09-10 -2.3 -1.2 -3.8- 98.0 5.1 7.9 10.1 16.3 0.0- 788.6 0.2 0.0 0.2 1 0.0 0.0- 0.4- 21.3---
2001-09-11 -0.1 1.2 -1.7- 99.4 6.1 6.9 4.4 0.0 0.0- 792.9 36.9 22.4 14.5 1 0.0 0.0 7.1 7.5 1.9 20.5---
265.3 ms

 

Źródłem pochodzenia danych jest Instytut Meteorologii i Gospodarki Wodnej – Państwowy Instytut Badawczy. Dane Instytutu Meteorologii i Gospodarki Wodnej – Państwowego Instytutu Badawczego zostały przetworzone.

Dane źródłowe można odnaleźć na stronie https://dane.imgw.pl